Altair, Texas
Current Conditions -  °F | °C
As of 12:15 PM on Friday 28 Nov 2014 (Local Time) from K66R Reporting Station
Overcast Overcast  
Wind Chill: 69°   Ceiling: 3600
Heat Index: 69°   Visibility: 10mi
Dew Point: 55°   Wind: 10mph
Humidity: 62%   Direction: 170°S
Pressure: 30.24"   Gusts: 17mph
Location:  29.57°N, 96.45°W
Report Text: K66R 281815Z AUTO 17009G15KT 10SM OVC036 21/13 A3024 RMK AO2 T02050130
Loading
Personal Weather Stations






























Interactive Weather Map New forecast layout! Learn more

10-Day Weather Forecast

Advertisements
Track Severe Weather on mobile